Date,TemperatureHighF,TemperatureAvgF,TemperatureLowF,DewpointHighF,DewpointAvgF,DewpointLowF,HumidityHigh,HumidityAvg,HumidityLow,PressureMaxIn,PressureMinIn,WindSpeedMaxMPH,WindSpeedAvgMPH,GustSpeedMaxMPH,PrecipitationSumIn
2013-1-1,75.4,63.2,53.9,62.0,58.1,53.3,99,85,61,30.22,30.02,10,2,22,0.01
2013-1-2,76.7,66.1,57.9,68.3,62.4,56.3,99,89,68,30.06,29.96,10,3,19,0.00
2013-1-3,63.6,60.1,53.1,63.6,59.3,52.3,100,97,87,30.22,30.03,15,8,23,0.05
2013-1-4,58.6,55.9,52.2,57.5,54.6,50.8,99,95,89,30.30,30.18,13,9,21,0.02
2013-1-5,63.4,57.1,47.9,58.2,54.1,46.0,99,90,76,30.32,30.22,12,6,18,0.00
2013-1-6,64.5,60.3,57.5,63.1,59.1,56.9,99,96,92,30.22,30.08,12,7,19,0.01
2013-1-7,66.2,60.7,54.7,63.2,56.6,50.2,99,87,73,30.25,30.14,14,8,23,0.00
2013-1-8,70.4,66.2,62.2,69.1,65.3,61.3,100,97,92,30.25,30.15,14,4,14,0.03
2013-1-9,69.5,66.8,63.8,69.0,66.5,63.8,100,99,95,30.32,30.21,9,1,9,0.02
2013-1-10,74.7,68.7,63.0,71.6,67.6,63.0,100,96,87,30.33,30.25,11,2,11,0.01
2013-1-11,79.0,68.5,61.5,70.9,66.3,61.3,100,93,61,30.27,30.16,18,3,18,0.01
2013-1-12,75.7,67.4,59.6,69.5,65.7,59.3,100,95,78,30.20,30.09,12,2,12,0.00
2013-1-13,75.0,66.7,58.0,69.3,64.7,58.0,100,93,78,30.17,30.07,12,2,12,0.01
2013-1-14,73.4,67.2,60.3,69.1,65.1,59.7,100,93,83,30.20,30.11,14,2,14,0.01
2013-1-15,76.1,69.0,62.7,70.0,66.7,62.6,100,93,80,30.15,30.05,14,3,14,0.00
2013-1-16,79.0,69.1,63.3,68.1,65.7,62.7,100,90,59,30.10,29.99,13,3,13,0.00
2013-1-17,77.3,63.1,49.1,68.5,58.7,41.3,99,86,70,30.11,29.89,30,6,30,0.01
2013-1-18,64.8,56.5,42.1,57.5,50.4,36.9,90,80,71,30.32,30.12,30,11,30,0.00
2013-1-19,65.5,60.9,57.8,60.1,58.0,55.3,99,91,71,30.32,30.17,24,11,24,0.00
2013-1-20,64.9,59.9,55.4,59.3,57.4,53.9,99,92,75,30.20,30.08,18,5,18,0.00
2013-1-21,64.3,59.5,55.7,57.6,55.1,49.9,98,86,62,30.11,30.01,12,3,12,0.00
2013-1-22,57.9,53.3,46.8,50.2,45.4,38.9,93,75,53,30.28,30.07,24,5,24,0.00
2013-1-23,58.2,50.0,40.9,47.7,41.2,34.6,87,72,56,30.39,30.28,19,4,19,0.00
2013-1-24,71.4,57.4,45.8,53.9,48.8,42.1,91,75,51,30.31,30.18,22,5,22,0.00
2013-1-25,67.8,60.5,53.2,62.2,56.0,49.7,96,85,69,30.30,30.16,15,4,15,0.00
2013-1-26,74.0,61.4,50.4,62.2,56.5,49.6,99,85,61,30.25,30.14,16,3,16,0.00
2013-1-27,70.1,64.2,55.6,66.5,61.8,55.0,100,92,87,30.33,30.21,11,3,11,0.00
2013-1-28,72.4,67.4,62.8,67.0,64.3,61.1,97,90,79,30.36,30.25,12,4,12,0.00
2013-1-29,71.3,68.1,64.6,68.5,66.5,63.7,98,95,89,30.26,30.10,19,5,19,0.00
2013-1-30,82.5,74.2,67.4,67.8,66.1,62.6,97,77,56,30.11,29.83,26,7,26,0.00
2013-1-31,72.6,55.6,48.4,66.1,42.7,29.4,95,65,33,30.23,29.83,26,8,26,0.03
2013-2-1,65.7,52.7,37.6,44.5,36.1,29.7,88,57,27,30.33,30.21,19,4,19,0.00
2013-2-2,60.6,54.4,46.2,50.7,45.8,38.8,96,73,60,30.32,30.15,15,4,15,0.00
2013-2-3,66.1,52.1,42.3,49.7,41.8,30.9,97,71,28,30.18,30.04,18,4,18,0.00
2013-2-4,64.5,53.1,43.1,52.7,45.2,38.3,95,76,44,30.12,30.04,11,3,11,0.00
2013-2-5,67.2,58.2,47.9,56.3,48.1,41.3,90,71,41,30.09,30.00,10,2,10,0.00
2013-2-6,66.0,63.2,58.9,64.8,61.2,55.9,98,93,89,30.15,30.03,10,2,10,0.08
2013-2-7,72.8,67.5,64.0,67.3,65.1,62.8,98,92,79,30.09,29.83,21,4,21,0.29
2013-2-8,71.0,63.4,57.5,66.0,59.9,55.1,97,89,64,30.08,29.83,18,6,18,0.00
2013-2-9,66.0,60.5,52.1,58.0,54.9,51.3,99,82,66,30.23,30.07,16,6,16,0.00
2013-2-10,70.4,66.6,63.4,62.9,59.5,54.6,87,78,69,30.29,30.16,20,7,20,0.00
2013-2-11,80.7,68.7,59.6,67.3,63.3,57.8,97,84,56,30.19,30.06,21,5,21,0.00
2013-2-12,82.2,71.1,65.2,68.6,65.8,63.3,96,84,55,30.08,29.89,18,4,18,0.00
2013-2-13,79.8,70.9,64.5,72.6,67.3,60.4,95,89,73,29.94,29.78,25,6,25,0.23
2013-2-14,64.4,57.8,51.7,62.7,55.3,50.8,98,92,80,30.08,29.90,18,4,18,0.19
2013-2-15,60.9,54.8,47.5,54.3,50.6,46.6,98,86,70,30.08,29.97,15,6,15,0.01
2013-2-16,62.2,51.9,44.5,50.3,44.4,26.6,96,77,51,30.12,29.89,27,7,27,0.00
2013-2-17,51.2,41.9,35.0,33.3,23.8,11.2,90,52,21,30.35,30.13,23,6,23,0.00
2013-2-18,59.6,49.9,34.6,52.0,38.9,25.7,83,66,48,30.40,30.23,12,4,12,0.00
2013-2-19,77.0,64.9,50.0,59.4,53.7,47.3,92,69,46,30.23,30.01,25,5,25,0.00
2013-2-20,65.7,58.7,52.5,60.0,49.3,43.8,90,71,58,30.16,30.06,18,5,18,0.00
2013-2-21,68.4,62.0,48.8,67.5,56.0,47.4,97,82,64,30.13,30.02,11,3,11,0.00
2013-2-22,68.5,67.8,66.9,67.3,66.6,66.0,97,96,95,30.04,30.02,5,1,5,0.00
2013-2-25,70.4,69.6,68.5,69.8,69.0,67.9,99,98,96,29.83,29.78,9,6,15,0.18
2013-2-26,76.8,70.5,64.0,72.3,66.1,53.1,99,87,46,29.83,29.68,12,6,28,0.28
2013-2-27,67.3,61.5,56.7,60.2,52.9,47.8,89,74,54,29.96,29.83,15,5,20,0.00
2013-2-28,70.8,59.7,49.7,49.7,46.7,42.1,87,64,41,29.97,29.83,13,6,24,0.00
2013-3-1,61.5,54.4,48.0,46.3,40.8,34.1,91,62,38,29.99,29.88,11,6,19,0.00
2013-3-2,56.7,49.1,40.7,40.1,34.0,24.7,78,58,30,30.02,29.89,18,9,34,0.00
2013-3-3,48.6,41.8,34.9,35.0,31.9,29.8,88,69,50,30.13,29.98,14,8,25,0.00
2013-3-4,56.6,45.7,34.2,43.6,35.2,25.9,87,69,41,30.22,30.12,11,4,18,0.00
2013-3-5,74.2,59.9,44.5,55.4,44.9,40.0,87,61,32,30.18,29.92,10,6,23,0.00
2013-3-6,63.6,55.8,46.1,60.7,38.7,28.0,92,55,29,30.13,29.86,19,11,31,0.00
2013-3-7,56.9,48.8,39.5,48.3,41.7,33.1,95,77,67,30.22,30.11,11,5,18,0.00
2013-3-8,62.3,54.5,43.3,52.7,46.9,40.6,97,77,51,30.22,30.15,15,4,15,0.01
2013-3-9,66.4,62.4,58.8,55.3,50.7,44.1,79,66,55,30.25,30.14,16,6,16,0.00
2013-3-12,72.9,66.5,57.5,67.8,63.1,50.1,98,89,77,30.01,29.85,16,6,16,0.07
2013-3-13,63.4,56.5,49.9,50.4,45.6,40.6,85,68,45,30.17,30.00,25,6,25,0.00
2013-3-14,54.0,50.6,44.2,44.2,39.1,31.9,88,65,53,30.28,30.14,22,7,22,0.00
2013-3-15,63.1,52.5,40.7,46.7,41.3,30.6,94,69,36,30.28,30.14,12,4,12,0.00
2013-3-16,79.0,62.2,46.8,56.7,46.6,43.1,94,61,30,30.17,30.00,18,3,18,0.00
2013-3-17,74.3,62.1,50.5,63.2,53.8,43.6,93,75,42,30.13,29.99,18,4,18,0.03
2013-3-18,79.0,68.5,62.7,66.9,63.4,60.4,95,84,56,30.06,29.85,18,3,18,0.00
2013-3-19,80.1,68.8,60.7,65.6,62.3,57.1,95,82,48,30.02,29.90,21,4,21,0.00
2013-3-20,69.1,62.5,54.2,64.4,60.3,53.4,100,93,76,29.99,29.81,28,6,28,0.14
2013-3-21,54.0,49.7,45.6,53.6,48.2,41.7,99,95,75,29.94,29.85,13,4,13,0.01
2013-3-22,65.3,62.7,49.0,59.8,51.1,43.8,88,67,54,30.04,29.95,14,5,14,0.00
2013-3-23,72.0,65.0,60.3,69.3,63.9,58.1,100,96,88,29.98,29.77,26,3,26,0.84
2013-3-24,80.7,73.2,65.7,73.0,69.0,64.7,100,87,71,29.83,29.56,35,9,35,0.00
2013-3-25,67.4,61.5,51.7,65.0,43.2,27.5,94,55,24,30.02,29.64,28,9,28,0.00
2013-3-26,56.7,50.0,43.3,36.6,31.1,25.7,69,49,32,30.23,30.02,29,9,29,0.00
2013-3-27,54.1,46.9,38.7,42.5,36.8,31.1,92,69,55,30.30,30.21,16,6,16,0.00
2013-3-28,60.4,51.2,40.1,46.7,41.8,36.0,94,72,48,30.29,30.20,14,4,14,0.00
2013-3-29,65.5,56.0,43.1,48.3,43.7,37.2,96,67,39,30.33,30.20,11,3,11,0.00
2013-3-30,73.2,61.0,47.8,59.4,51.4,43.8,89,72,39,30.26,30.10,19,4,19,0.00
2013-3-31,81.2,67.8,58.5,63.1,54.7,50.8,83,65,36,30.16,29.96,19,4,19,0.00
2013-4-1,82.7,70.5,59.1,67.1,61.0,53.9,87,73,52,30.00,29.88,21,4,21,0.03
2013-4-2,69.0,65.2,58.9,63.2,61.0,58.3,98,87,71,30.11,29.96,15,5,15,0.00
2013-4-3,73.3,67.1,60.8,68.0,64.7,59.3,99,92,81,30.08,29.99,12,3,12,0.67
2013-4-4,75.7,70.4,65.7,71.1,67.2,63.8,100,90,78,30.05,29.85,23,5,23,0.08
2013-4-5,68.3,62.3,57.0,64.7,60.4,53.4,99,94,81,30.00,29.77,26,7,26,0.07
2013-4-6,66.1,62.5,59.0,61.4,57.8,53.1,95,85,79,30.15,29.99,20,10,20,0.00
2013-4-7,71.6,66.3,59.8,65.6,62.7,59.1,100,89,75,30.19,30.06,12,4,12,0.00
2013-4-8,72.4,67.1,58.4,68.6,64.7,57.8,100,92,79,30.16,30.07,11,3,11,0.00
2013-4-9,75.0,69.9,63.7,69.8,67.1,62.8,100,91,82,30.19,30.08,18,4,18,0.03
2013-4-10,75.3,70.6,65.2,70.8,68.2,63.8,97,92,85,30.15,30.00,14,4,14,0.00
2013-4-11,76.5,72.4,68.4,73.0,70.6,68.0,100,94,84,30.00,29.82,24,6,24,0.00
2013-4-12,83.3,77.5,71.4,75.4,72.0,68.9,97,84,69,29.88,29.78,25,7,25,0.00
2013-4-13,74.3,68.5,64.9,69.6,62.9,56.6,97,83,69,30.00,29.86,18,5,18,0.00
2013-4-14,74.1,68.5,61.3,71.6,66.6,60.3,100,94,81,30.01,29.83,23,3,23,1.44
2013-4-15,76.2,70.2,63.9,69.7,66.9,63.6,100,90,70,30.10,29.85,18,3,18,0.00
2013-4-16,74.0,69.6,65.4,71.5,68.6,65.4,100,97,90,30.18,30.08,14,4,14,0.00
2013-4-17,73.9,70.8,68.3,71.4,69.8,68.3,100,97,91,30.16,30.08,13,3,13,0.01
2013-4-18,78.1,72.6,66.4,73.2,70.7,66.2,100,94,82,30.08,29.97,13,3,13,0.01
2013-4-19,86.0,75.3,71.1,74.9,72.5,70.3,99,91,62,30.01,29.86,24,5,24,0.44
2013-4-20,73.1,61.0,55.0,71.9,59.0,52.0,99,93,83,30.17,29.95,20,7,20,0.08
2013-4-21,70.3,67.4,64.5,68.4,65.2,60.1,100,93,85,30.16,30.05,22,8,22,0.01
2013-4-22,69.5,66.7,64.1,68.6,65.8,62.2,100,97,93,30.09,30.00,30,10,30,0.12
2013-4-23,67.5,65.8,59.7,65.3,62.3,58.6,96,88,83,30.15,30.03,22,8,22,0.00
2013-4-24,74.7,66.4,56.2,68.1,63.3,55.9,100,90,74,30.16,30.08,8,3,10,0.01
2013-4-25,76.8,70.3,61.4,71.4,66.8,60.8,99,89,75,30.20,30.10,8,3,11,0.00
2013-4-26,74.7,70.6,65.6,70.9,68.0,63.8,95,91,87,30.26,30.14,13,6,18,0.00
2013-4-27,75.4,72.0,66.3,69.5,67.7,65.0,99,87,74,30.25,30.14,8,4,10,0.01
2013-4-28,76.8,72.8,70.0,70.2,68.5,67.3,94,87,76,30.16,30.00,10,6,16,0.00
2013-4-29,79.0,71.7,65.9,70.9,67.8,64.3,98,88,71,30.02,29.90,11,5,18,0.48
2013-4-30,74.1,70.0,66.1,70.7,68.5,65.6,100,95,87,30.02,29.92,9,3,13,0.00
2013-5-1,75.3,71.9,70.0,72.3,70.3,68.7,98,95,89,30.04,29.95,10,5,19,0.00
2013-5-2,71.5,69.8,67.4,70.6,69.1,66.6,100,98,93,29.99,29.84,16,6,23,1.67
2013-5-3,68.8,67.9,66.9,68.8,67.8,65.9,100,100,97,29.85,29.79,20,11,28,4.11
2013-5-6,73.8,67.3,59.6,58.7,53.0,49.8,94,62,46,29.98,29.88,20,6,20,0.00
2013-5-7,76.3,66.0,55.0,60.9,56.6,50.4,92,73,57,30.02,29.92,21,5,21,0.00
2013-5-8,73.6,67.7,60.6,67.4,63.3,58.7,96,86,73,30.11,30.00,14,4,14,0.00
2013-5-9,75.7,69.9,62.7,70.7,66.3,61.8,98,89,81,30.14,30.06,13,4,13,0.00
2013-5-10,78.8,71.8,62.3,73.7,68.8,61.4,99,91,83,30.12,30.00,16,3,16,0.00
2013-5-11,86.4,75.0,69.9,73.4,70.9,68.7,99,88,59,30.05,29.92,18,3,18,0.21
2013-5-12,82.8,73.5,67.4,73.0,70.0,66.5,98,89,64,30.01,29.92,18,4,18,0.04
2013-5-13,73.3,69.2,60.3,71.8,60.0,50.3,95,74,51,30.13,29.97,19,5,19,0.00
2013-5-14,73.7,66.9,55.9,59.5,56.2,52.4,96,70,48,30.23,30.13,13,3,13,0.00
2013-5-15,77.0,68.2,57.3,65.6,61.1,56.1,96,80,60,30.22,30.10,14,3,14,0.00
2013-5-16,78.3,73.8,62.5,69.6,66.9,60.4,95,79,66,30.13,30.03,15,5,15,0.00
2013-5-17,78.5,73.3,65.0,72.1,68.5,62.9,95,85,72,30.11,30.03,13,4,13,0.00
2013-5-18,79.1,74.5,66.7,74.4,71.6,65.5,98,91,84,30.13,30.03,15,4,15,0.01
2013-5-19,79.0,74.7,70.1,74.2,72.0,68.5,97,92,83,30.09,30.00,19,6,19,0.66
2013-5-20,79.6,75.2,72.7,75.8,73.1,71.2,98,93,85,30.08,30.01,13,3,13,0.05
2013-5-21,79.0,74.0,69.2,74.1,71.8,68.4,99,93,84,30.05,29.94,14,3,14,0.02
2013-5-22,78.8,74.5,69.7,75.2,72.5,69.0,100,94,85,30.00,29.91,12,2,12,0.13
2013-5-23,82.0,75.3,70.0,76.3,72.3,69.7,100,91,72,29.97,29.90,13,3,13,0.05
2013-5-24,81.5,76.0,70.4,72.9,70.2,66.7,99,83,64,30.03,29.93,14,5,14,0.00
2013-5-25,78.5,76.1,72.6,64.5,60.7,56.6,67,59,51,30.23,30.15,19,6,19,0.00
2013-5-26,76.8,72.0,61.1,64.1,61.1,56.4,94,69,57,30.23,30.14,11,3,11,0.00
2013-5-27,79.4,73.8,63.1,69.0,65.3,61.3,96,76,64,30.21,30.13,14,5,14,0.00
2013-5-28,80.3,76.9,73.7,72.7,69.8,65.3,88,79,74,30.17,30.10,16,7,16,0.00
2013-5-29,82.0,78.5,75.8,76.6,74.3,71.7,92,87,81,30.16,30.08,15,6,15,0.00
2013-5-30,82.1,78.5,76.2,76.8,74.3,71.8,91,87,80,30.16,30.08,19,8,19,0.02
2013-5-31,81.8,78.5,76.2,75.5,73.4,71.7,90,84,79,30.14,30.07,19,8,19,0.00
2013-6-1,81.3,78.0,74.2,76.3,74.2,72.3,98,88,81,30.09,30.01,19,7,19,0.67
2013-6-2,82.0,78.7,76.2,78.4,76.3,74.7,96,93,87,30.03,29.89,18,6,18,0.00
2013-6-3,84.3,77.0,71.7,78.3,75.0,70.8,100,94,78,29.96,29.85,20,4,20,0.55
2013-6-4,83.0,75.5,73.0,77.5,74.0,72.5,100,95,78,30.01,29.92,18,2,18,0.94
2013-6-5,79.0,75.1,71.6,75.5,73.4,71.3,99,95,83,30.01,29.92,11,2,11,0.07
2013-6-6,78.9,76.0,72.8,76.9,74.4,71.7,99,95,82,29.92,29.60,29,9,29,1.27
2013-6-7,88.6,80.4,72.2,75.5,72.9,70.4,97,79,60,29.92,29.66,23,6,23,0.02
2013-6-8,85.3,77.6,73.1,77.4,74.6,72.2,98,91,72,30.03,29.92,16,4,16,0.03
2013-6-9,78.8,77.9,77.1,76.6,75.5,73.1,95,92,85,30.11,30.04,13,5,13,0.00
2013-6-10,83.3,79.7,76.1,78.7,76.7,72.3,98,90,82,30.10,30.00,20,5,20,0.00
2013-6-11,85.5,78.9,74.6,79.8,75.3,71.2,98,89,76,30.07,30.00,19,3,19,0.03
2013-6-12,89.5,80.5,73.3,80.4,75.9,72.0,97,86,61,30.06,29.97,14,4,14,0.00
2013-6-13,94.1,83.9,76.1,78.8,75.1,70.7,97,77,50,30.00,29.84,16,5,16,0.00
2013-6-14,88.8,80.1,73.0,79.2,75.8,70.5,96,87,70,29.92,29.80,34,5,34,0.40
2013-6-15,82.3,79.3,76.7,76.5,73.8,71.6,95,83,74,30.08,29.92,14,6,14,0.00
2013-6-16,82.2,79.2,77.6,77.0,75.0,72.7,93,87,82,30.11,30.03,14,5,14,0.00
2013-6-17,83.3,79.1,75.3,79.9,76.9,74.1,98,93,87,30.08,29.96,20,3,20,0.17
2013-6-18,92.5,81.4,73.7,78.7,75.4,72.5,97,83,56,30.03,29.92,18,3,18,0.03
2013-6-19,86.5,79.7,74.6,79.6,75.5,73.2,97,87,74,30.02,29.92,16,4,16,0.07
2013-6-20,89.3,78.5,72.7,78.8,75.4,68.9,99,91,64,30.12,29.98,22,2,22,0.52
2013-6-21,82.2,78.2,74.4,78.4,76.0,72.8,100,93,85,30.11,30.03,12,2,12,0.01
2013-6-22,82.5,77.5,71.9,78.0,75.2,71.5,100,93,85,30.13,30.06,11,2,11,0.08
2013-6-23,83.9,79.8,74.0,78.2,76.2,73.4,99,89,81,30.15,30.07,16,4,16,0.01
2013-6-24,84.3,80.6,75.2,78.6,76.9,74.1,98,89,81,30.19,30.09,14,4,14,0.00
2013-6-25,84.2,80.2,74.5,78.5,76.4,73.7,98,89,79,30.16,30.04,14,4,14,0.01
2013-6-26,87.2,79.9,75.2,80.0,77.0,74.0,98,91,72,30.08,30.00,18,3,18,0.13
2013-6-27,85.3,78.6,72.5,79.3,75.5,71.6,98,91,76,30.03,29.91,15,3,15,0.02
2013-6-28,90.7,79.0,73.6,78.9,75.6,71.0,98,90,62,29.94,29.79,25,3,25,0.02
2013-6-29,86.3,78.3,73.8,79.0,75.5,71.6,98,91,77,29.85,29.76,28,5,28,0.01
2013-6-30,89.7,77.2,73.6,78.4,74.6,72.3,98,92,68,29.87,29.78,29,4,29,0.01
2013-7-1,86.0,77.1,72.9,76.6,74.1,72.2,98,91,70,30.02,29.84,21,4,21,0.00
2013-7-2,79.5,73.8,71.9,77.8,73.2,71.2,100,98,92,30.10,29.98,25,2,25,0.02
2013-7-3,81.8,75.9,71.9,78.2,74.6,71.6,100,96,86,30.14,30.06,16,4,16,0.02
2013-7-4,80.8,77.0,73.2,77.6,75.2,72.7,99,94,87,30.16,30.09,21,5,21,0.11
2013-7-5,81.5,77.5,73.4,78.5,75.6,72.7,99,94,87,30.17,30.09,15,4,15,0.22
2013-7-6,81.9,78.1,74.1,78.7,76.3,73.5,99,94,86,30.15,30.07,15,4,15,0.03
2013-7-7,82.5,78.8,74.0,78.9,76.9,73.7,100,94,87,30.15,30.07,10,3,10,0.02
2013-7-8,82.8,79.5,75.4,79.4,77.7,75.1,100,94,88,30.18,30.10,9,3,10,0.00
2013-7-9,83.4,79.6,74.6,78.7,76.6,74.3,100,91,81,30.18,30.08,10,3,10,0.02
2013-7-10,83.3,80.1,77.1,78.2,76.3,74.5,94,88,82,30.09,29.97,18,5,18,0.00
2013-7-11,79.7,75.9,73.8,75.8,73.7,72.3,96,93,88,30.02,29.98,10,2,10,0.00
2013-7-12,77.2,74.9,71.9,74.9,73.6,71.3,99,96,91,29.94,29.88,5,0,5,0.04
2013-7-13,81.3,76.0,72.6,78.3,74.8,71.8,100,96,88,29.99,29.89,27,3,27,0.03
2013-7-14,78.2,74.7,72.0,76.0,74.0,72.0,100,98,91,30.11,29.97,14,2,14,0.09
2013-7-15,80.0,76.5,72.6,77.7,75.4,72.2,100,96,88,30.15,30.07,16,3,16,0.21
2013-7-16,82.5,79.2,75.2,79.2,77.1,72.7,98,93,85,30.19,30.11,15,4,15,0.35
2013-7-17,83.3,80.3,77.7,79.3,77.7,76.5,97,92,83,30.18,30.08,12,3,12,0.33
2013-7-18,83.0,79.1,75.8,77.7,76.2,72.6,99,91,82,30.13,30.05,13,2,13,0.18
2013-7-19,87.4,76.8,72.0,78.5,74.0,71.7,99,92,71,30.13,30.03,19,3,19,0.06
2013-7-20,85.3,75.8,72.0,80.5,74.7,71.5,100,97,82,30.09,30.01,26,2,26,0.25
2013-7-21,88.0,76.1,72.0,79.9,74.6,70.7,100,96,72,30.11,30.02,32,2,32,0.15
2013-7-22,87.8,76.5,74.0,79.5,75.3,72.8,100,96,73,30.11,30.02,26,2,26,0.12
2013-7-23,84.5,77.1,73.6,78.8,75.6,73.2,100,95,81,30.06,29.94,24,4,24,0.10
2013-7-24,83.8,78.6,74.9,78.5,75.3,72.3,99,90,80,29.92,29.84,21,7,21,0.25
2013-7-25,88.2,82.0,75.5,77.6,75.8,74.2,97,82,67,29.95,29.85,21,6,21,0.00
2013-7-26,82.6,78.9,74.9,80.2,77.4,74.3,99,95,91,30.01,29.92,14,3,14,0.00
2013-7-27,83.6,79.1,75.6,80.0,77.5,75.2,100,95,84,29.99,29.89,13,2,13,0.02
2013-7-28,86.5,77.4,73.2,79.5,75.4,71.1,99,94,72,30.05,29.92,19,2,19,0.35
2013-7-29,84.1,78.3,72.0,79.5,76.1,71.7,99,93,82,30.14,30.01,16,3,16,0.00
2013-7-30,85.4,80.7,75.6,80.6,78.3,75.3,99,93,83,30.17,30.08,14,3,14,0.00
2013-7-31,85.1,79.1,72.4,81.3,77.4,72.0,100,95,85,30.12,30.00,19,3,19,0.67
2013-8-1,89.1,76.9,72.1,79.2,74.5,71.5,99,93,66,30.04,29.95,13,2,14,0.06
2013-8-2,83.8,78.6,72.5,79.8,76.5,72.2,100,93,85,30.03,29.93,11,2,11,0.01
2013-8-3,90.0,80.5,75.1,79.7,76.6,74.8,99,89,64,30.05,29.97,16,4,16,0.01
2013-8-4,86.6,79.7,75.6,80.9,77.4,73.7,99,93,79,30.04,29.93,24,3,24,0.65
2013-8-5,85.6,81.3,78.0,81.8,78.9,76.0,99,93,84,29.99,29.89,13,3,13,0.00
2013-8-6,85.3,80.9,75.5,81.2,78.4,74.9,99,92,84,29.98,29.89,12,3,12,0.00
2013-8-7,84.2,81.8,80.0,80.4,79.2,78.2,96,92,85,29.99,29.92,14,4,14,0.00
2013-8-8,86.0,82.4,78.3,80.6,79.0,77.2,97,89,80,30.05,29.94,16,5,16,0.00
2013-8-9,86.0,82.6,80.7,80.8,78.7,76.2,94,88,82,30.07,29.97,18,6,18,0.06
2013-8-10,86.8,82.0,75.9,81.4,78.8,75.0,98,90,82,30.14,30.05,14,4,14,0.00
2013-8-11,86.1,81.6,76.7,80.9,78.5,76.1,99,91,80,30.16,30.07,11,3,11,0.00
2013-8-12,86.5,81.3,76.1,79.9,77.1,75.2,97,88,79,30.12,30.00,14,3,14,0.00
2013-8-13,89.5,81.8,76.7,80.5,77.2,74.7,95,86,68,30.04,29.90,15,4,15,0.00
2013-8-14,88.5,80.7,74.8,81.4,77.1,70.1,96,89,70,29.99,29.87,27,4,27,0.05
2013-8-15,84.8,79.0,72.7,80.6,76.3,71.8,99,92,80,30.04,29.92,20,3,20,0.40
2013-8-16,87.0,78.1,73.5,80.6,76.2,73.2,100,94,75,30.05,29.96,12,1,12,0.01
2013-8-17,83.9,78.3,72.4,80.9,76.9,72.1,100,95,82,30.10,29.99,20,2,20,0.90
2013-8-18,84.9,81.0,75.8,81.6,79.0,75.8,100,94,82,30.11,30.03,15,2,15,0.00
2013-8-19,86.0,82.2,79.0,80.9,79.2,75.4,99,91,75,30.09,29.97,13,3,13,0.04
2013-8-20,86.5,82.5,78.0,81.3,79.3,77.5,99,90,80,30.10,30.00,14,4,14,0.02
2013-8-21,84.8,80.7,74.1,81.1,78.0,70.2,95,92,84,30.17,30.05,18,4,18,0.48
2013-8-22,84.3,80.2,76.8,80.3,77.7,74.0,97,92,82,30.10,29.99,22,3,22,0.09
2013-8-23,83.5,80.1,74.9,79.9,77.8,73.4,99,93,86,30.03,29.97,10,1,10,0.04
2013-8-24,81.0,78.2,75.2,80.1,76.8,74.8,100,96,87,30.12,30.00,12,2,12,0.48
2013-8-25,82.3,79.7,75.7,77.6,76.3,73.5,97,90,83,30.17,30.09,19,5,19,0.24
2013-8-26,83.0,80.5,76.0,79.5,76.5,72.2,96,88,81,30.15,30.05,18,7,18,0.77
2013-8-27,83.2,80.9,74.8,76.1,73.7,70.2,87,79,74,30.07,30.00,11,4,11,0.00
2013-8-28,84.0,77.8,70.4,74.9,71.7,69.5,99,83,63,30.06,29.98,13,2,13,0.00
2013-8-29,90.3,80.4,72.6,78.7,74.2,71.1,95,82,57,30.02,29.91,16,4,16,0.00
2013-8-30,87.9,81.7,75.5,80.1,76.6,72.8,98,85,70,29.97,29.86,16,4,16,0.00
2013-8-31,87.8,79.6,73.0,79.9,75.4,70.3,98,88,71,29.95,29.86,19,2,19,0.00
2013-9-1,86.8,78.5,72.5,79.4,75.2,70.2,97,90,71,29.98,29.88,19,4,19,0.03
2013-9-2,89.8,79.7,73.7,79.7,75.9,73.1,99,89,65,29.99,29.89,19,4,19,0.00
2013-9-3,86.0,79.4,74.7,79.5,75.9,72.7,98,89,74,29.99,29.90,15,2,15,0.05
2013-9-4,85.5,80.2,75.6,80.5,77.8,74.7,99,92,85,30.07,29.96,12,2,12,0.00
2013-9-5,86.5,80.8,74.7,80.0,76.6,73.8,98,88,76,30.09,29.99,12,2,12,0.00
2013-9-6,86.1,78.2,74.0,80.0,76.1,72.1,99,93,81,30.05,29.98,22,2,22,0.04
2013-9-7,84.3,78.6,71.9,78.4,74.7,69.7,100,88,75,30.01,29.93,20,4,20,0.20
2013-9-8,83.8,81.5,78.7,77.2,73.8,70.9,87,78,68,29.97,29.90,15,5,15,0.00
2013-9-9,84.7,78.7,70.0,76.1,72.3,69.1,99,82,70,30.05,29.94,14,4,14,0.00
2013-9-10,85.0,82.0,78.6,77.2,74.3,71.1,90,78,67,30.12,30.01,16,7,16,0.01
2013-9-11,84.9,80.8,71.7,77.9,75.6,68.4,99,84,75,30.10,30.02,19,5,19,0.24
2013-9-12,83.2,79.7,75.6,78.4,75.9,72.7,98,88,77,30.03,29.89,11,3,11,0.00
2013-9-13,86.8,79.5,72.9,78.3,74.7,72.2,99,86,64,29.91,29.78,16,3,16,0.00
2013-9-14,86.8,80.4,73.1,78.3,75.6,72.2,98,86,74,29.98,29.81,11,2,11,0.00
2013-9-15,85.8,81.1,74.8,80.4,77.8,74.2,100,90,79,30.08,29.97,20,4,20,0.14
2013-9-16,84.6,80.2,74.7,78.0,76.5,74.3,100,89,76,30.08,30.00,11,3,11,0.24
2013-9-17,84.8,80.6,75.4,79.0,76.5,72.5,99,88,78,30.09,29.99,23,5,23,0.00
2013-9-18,83.2,79.3,75.1,76.7,74.8,72.9,97,86,74,30.08,29.99,19,9,21,0.23
2013-9-19,83.8,80.2,77.4,76.3,72.9,69.1,91,78,70,30.07,29.99,16,7,16,0.25
2013-9-20,82.5,78.5,71.3,74.4,71.7,68.7,95,80,72,30.03,29.92,12,4,12,0.00
2013-9-21,83.6,78.0,70.7,74.4,71.9,69.5,98,82,68,29.94,29.76,13,3,13,0.00
2013-9-22,85.9,77.1,74.1,78.4,74.0,71.7,98,91,74,29.85,29.74,15,3,15,0.23
2013-9-23,79.8,75.7,73.0,77.3,74.7,72.7,100,97,90,29.95,29.83,8,1,14,0.35
2013-9-24,85.3,76.9,73.5,78.1,75.4,73.4,100,95,78,29.94,29.81,9,2,13,0.24
2013-9-25,84.5,77.2,73.0,75.9,74.6,73.0,100,92,74,29.82,29.73,20,4,20,0.01
2013-9-26,83.2,77.0,71.7,78.0,74.7,70.5,100,93,80,29.87,29.74,25,6,25,0.00
2013-9-27,82.0,78.1,71.3,75.3,73.2,70.4,98,85,75,29.96,29.84,25,9,25,0.08
2013-9-28,80.0,76.6,72.3,75.4,72.6,69.4,100,87,78,30.03,29.92,23,7,23,0.14
2013-9-29,80.3,77.6,71.7,74.2,72.2,69.6,95,84,77,30.00,29.92,21,6,21,0.00
2013-9-30,80.5,75.8,69.0,74.1,70.5,68.1,98,84,75,30.02,29.91,19,4,19,0.00
2013-10-1,79.3,76.9,74.0,70.8,69.3,67.1,87,78,73,30.08,29.99,15,5,15,0.03
2013-10-2,80.9,75.7,67.4,74.1,69.3,66.5,98,81,66,30.08,30.02,16,3,16,0.00
2013-10-3,83.3,77.5,70.1,76.2,72.8,69.2,98,86,75,30.08,30.00,12,3,12,0.00
2013-10-4,82.6,78.4,71.8,76.8,74.1,71.0,99,87,79,30.09,30.01,12,3,12,0.00
2013-10-5,83.1,79.9,73.4,76.7,74.5,71.7,96,84,78,30.06,29.98,12,4,12,0.00
2013-10-6,83.7,79.5,74.2,78.3,76.2,73.3,99,90,82,29.99,29.86,14,4,14,0.32
2013-10-7,85.6,77.7,73.8,76.8,74.5,72.7,98,90,71,29.87,29.73,15,3,15,0.56
2013-10-8,81.1,75.4,73.0,76.9,73.9,71.4,100,95,84,29.95,29.75,29,8,29,0.11
2013-10-9,74.1,69.0,66.5,72.1,67.4,64.8,99,95,87,30.05,29.94,25,10,25,0.01
2013-10-10,76.5,70.2,64.6,70.3,66.4,63.8,98,88,74,30.06,29.97,15,4,15,0.00
2013-10-11,79.5,71.5,64.6,70.2,66.5,64.0,99,85,66,30.03,29.93,10,2,10,0.01
2013-10-12,80.8,73.4,67.5,70.0,65.9,61.5,95,79,55,30.04,29.95,10,2,10,0.00
2013-10-13,80.3,73.4,65.3,71.9,67.4,63.8,97,83,61,30.08,29.99,15,3,15,0.00
2013-10-14,77.0,73.0,68.0,72.0,69.6,66.2,98,89,79,30.04,29.96,23,8,23,0.13
2013-10-15,80.9,74.1,69.2,77.0,72.5,68.5,100,95,87,29.98,29.89,22,7,22,0.06
2013-10-16,79.1,76.8,73.6,74.9,73.8,72.1,97,91,86,29.96,29.91,18,7,18,0.00
2013-10-17,80.3,76.5,71.2,76.0,73.5,70.5,99,91,80,29.97,29.89,10,3,10,0.00
2013-10-18,84.3,77.0,70.5,77.3,73.8,70.2,100,90,69,29.98,29.90,13,3,13,0.00
2013-10-19,85.3,76.8,71.7,78.3,74.6,71.1,99,93,75,29.95,29.84,26,3,26,1.50
2013-10-20,77.0,75.4,73.7,75.7,72.3,70.2,100,91,81,29.98,29.86,18,5,18,0.00
2013-10-21,80.3,77.1,73.3,76.4,74.8,72.6,99,93,86,30.01,29.92,12,4,12,0.60
2013-10-22,85.7,77.2,73.9,79.2,75.2,72.5,100,94,76,29.95,29.79,15,2,15,0.00
2013-10-23,75.7,70.5,63.4,73.1,64.3,54.8,99,82,50,30.01,29.78,18,5,18,0.03
2013-10-24,69.0,62.7,57.5,61.9,56.2,51.6,93,79,70,30.16,30.01,16,6,16,0.00
2013-10-25,72.3,64.6,56.0,61.5,57.3,54.3,96,78,55,30.23,30.15,18,5,18,0.00
2013-10-26,71.3,67.4,61.1,61.3,56.9,51.8,87,69,60,30.23,30.11,15,5,15,0.00
2013-10-27,70.8,63.7,55.2,59.0,56.4,52.6,94,79,56,30.15,30.07,13,4,13,0.00
2013-10-28,74.9,67.5,57.2,68.1,63.1,56.6,99,86,73,30.20,30.10,14,4,14,0.00
2013-10-29,76.9,74.4,72.9,70.1,67.5,65.2,83,79,70,30.25,30.16,16,7,16,0.00
2013-10-30,78.1,74.9,69.8,72.9,70.6,67.6,95,86,78,30.25,30.14,14,5,14,0.01
2013-10-31,80.5,75.5,69.4,73.6,71.6,68.2,98,88,75,30.14,29.98,14,4,14,0.02
2013-11-1,85.2,77.4,71.3,72.8,70.5,68.5,95,80,59,29.99,29.83,20,4,20,0.00
2013-11-2,75.5,68.1,60.2,71.5,66.2,59.3,98,94,86,29.96,29.76,16,3,16,0.18
2013-11-3,71.3,65.0,55.2,62.9,56.3,50.8,98,76,51,30.14,29.95,26,7,26,0.01
2013-11-4,77.0,72.8,70.1,68.8,62.2,54.1,92,70,53,30.20,30.12,25,10,25,0.02
2013-11-5,77.6,74.2,69.6,70.7,67.9,64.9,98,81,71,30.21,30.13,23,8,23,0.24
2013-11-6,75.2,72.6,69.9,71.2,69.8,67.6,99,91,81,30.15,30.05,18,6,18,0.17
2013-11-7,72.5,69.8,66.4,70.8,68.8,65.5,100,96,88,30.06,29.96,12,3,12,0.00
2013-11-8,70.7,66.7,57.9,68.2,61.3,52.8,98,83,72,30.16,30.00,25,10,25,0.00
2013-11-9,74.7,70.8,64.6,68.1,63.2,59.7,97,77,70,30.20,30.13,20,6,20,0.00
2013-11-10,72.3,68.1,62.9,70.5,66.6,62.0,99,95,89,30.19,30.11,22,6,22,0.00
2013-11-12,70.5,68.3,65.4,67.4,63.2,56.2,98,84,71,30.11,30.01,20,6,20,0.01
2013-11-13,65.9,59.3,56.7,57.7,52.6,48.6,89,79,69,30.36,30.09,36,15,36,0.00
2013-11-14,71.3,67.4,61.7,63.0,57.5,49.1,80,71,58,30.33,30.19,21,8,21,0.00
2013-11-15,69.3,67.6,65.7,67.6,65.0,61.6,99,92,77,30.21,30.02,20,2,20,0.10
2013-11-16,71.8,68.6,64.9,69.7,68.0,64.5,100,98,93,30.16,30.06,20,3,20,0.00
2013-11-17,75.5,71.7,68.6,73.2,70.4,68.3,100,96,90,30.09,29.99,11,2,11,0.00
2013-11-18,80.9,74.1,69.2,74.3,71.7,68.5,99,92,73,30.02,29.89,14,2,14,0.00
2013-11-19,71.2,68.3,62.6,70.9,63.8,55.2,99,86,67,29.99,29.88,24,10,24,0.00
2013-11-20,72.3,69.9,67.1,70.1,67.9,65.3,99,93,83,30.14,29.98,14,4,14,0.17
2013-11-21,72.3,70.7,69.9,71.0,69.2,68.2,96,95,93,30.22,30.12,10,2,10,0.01
2013-11-22,74.1,71.0,69.4,71.0,69.1,68.2,97,94,86,30.22,30.11,16,2,16,0.01
2013-11-23,75.0,69.8,63.6,70.4,67.7,63.1,99,93,80,30.11,30.00,15,2,15,0.01
2013-11-24,68.6,62.3,59.1,66.5,57.0,51.3,93,83,71,30.29,30.04,30,12,30,0.00
2013-11-25,71.0,67.1,62.9,64.1,59.4,53.0,89,77,67,30.29,30.11,19,8,22,0.01
2013-11-26,75.2,70.5,67.4,72.5,69.0,64.1,99,95,88,30.11,29.70,19,5,19,0.12
2013-11-27,72.2,58.5,42.2,71.6,54.4,37.7,99,86,75,30.20,29.63,32,9,32,0.20
2013-11-28,60.5,49.7,36.7,56.3,45.0,33.3,92,84,76,30.36,30.20,24,10,24,0.00
2013-11-29,65.0,61.9,56.3,59.7,57.1,53.1,94,84,72,30.39,30.32,25,11,25,0.00
2013-11-30,66.0,63.2,59.7,64.5,62.2,57.7,99,97,93,30.33,30.19,27,12,27,0.00
2013-12-1,64.2,61.7,59.6,63.9,61.4,59.6,100,99,97,30.19,29.98,19,7,19,0.00
2013-12-2,62.9,59.0,55.3,60.2,57.9,54.6,100,96,88,29.98,29.82,12,2,12,0.00
2013-12-3,67.7,61.1,53.4,63.6,59.4,53.3,100,94,82,29.98,29.88,14,2,14,0.01
2013-12-4,76.5,67.3,61.7,70.0,65.1,60.5,98,93,80,30.09,29.96,11,2,11,0.00
2013-12-5,80.8,68.4,59.7,70.2,65.6,59.3,100,92,68,30.17,30.07,14,2,14,0.00
2013-12-6,78.5,70.9,65.4,73.4,68.7,64.7,99,93,81,30.16,30.09,15,3,15,0.01
2013-12-7,79.6,71.1,66.4,72.5,68.6,65.7,99,92,77,30.22,30.14,11,2,11,0.00
2013-12-8,68.1,65.5,62.6,68.0,65.4,62.3,100,100,98,30.24,30.12,11,2,11,0.01
2013-12-9,80.2,70.8,65.8,73.3,69.1,65.8,100,95,76,30.17,30.08,14,3,14,0.01
2013-12-10,82.0,70.8,61.1,69.2,65.8,54.1,98,85,62,30.23,30.02,23,6,23,0.04
2013-12-11,69.8,63.9,60.8,67.1,61.0,53.3,96,91,76,30.25,30.18,24,10,24,0.00
2013-12-12,60.9,59.3,57.8,59.5,50.0,41.2,95,72,52,30.35,30.21,25,10,25,0.00
2013-12-13,68.2,62.3,50.1,62.8,56.3,46.9,97,81,68,30.29,30.12,13,4,13,0.00
2013-12-14,74.2,69.6,65.0,71.0,67.3,62.4,100,93,84,30.13,29.90,20,4,20,0.10
2013-12-15,68.3,62.6,51.4,67.8,60.4,47.8,100,93,79,30.15,29.82,30,5,30,1.38
2013-12-16,55.2,49.7,43.1,49.4,45.9,41.9,96,87,72,30.23,30.13,14,6,14,0.00
2013-12-17,61.4,52.9,43.7,52.7,47.3,41.3,94,82,66,30.26,30.17,15,5,15,0.00
2013-12-18,61.6,55.9,44.9,50.5,46.7,41.9,91,72,53,30.29,30.22,16,4,16,0.00
2013-12-19,65.3,57.1,44.5,62.2,54.2,42.6,99,90,64,30.29,30.20,12,3,12,0.00
2013-12-20,70.0,62.2,52.6,66.3,60.7,52.3,100,95,84,30.21,30.13,8,1,8,0.01
2013-12-21,75.3,70.2,62.6,71.7,68.3,61.7,99,94,88,30.14,30.04,21,4,21,0.00
2013-12-22,83.0,73.4,69.5,73.4,70.8,68.3,100,92,69,30.13,30.06,21,4,21,0.01
2013-12-23,83.9,74.1,69.2,73.5,70.0,67.2,100,88,63,30.16,30.04,20,3,20,0.00
2013-12-24,71.0,60.3,53.8,69.8,53.3,40.6,98,79,51,30.28,30.08,25,8,25,0.01
2013-12-25,64.4,59.0,47.6,60.4,56.5,45.7,98,92,67,30.26,30.19,22,9,22,0.00
2013-12-26,61.5,58.2,56.6,61.1,57.4,55.2,99,97,95,30.24,30.16,23,10,23,0.00
2013-12-27,64.1,61.3,59.7,63.1,60.4,58.6,99,97,96,30.28,30.18,23,10,23,0.00
2013-12-28,69.8,66.4,63.1,68.8,65.7,61.9,100,98,94,30.25,30.00,16,3,16,0.05
2013-12-29,75.3,70.1,63.9,72.3,68.7,63.4,99,96,85,30.01,29.87,13,4,19,0.06
2013-12-30,64.1,57.6,52.6,63.8,54.5,49.8,99,90,73,30.17,29.98,14,5,14,0.00
2013-12-31,60.4,58.7,54.9,55.5,53.6,50.6,93,83,73,30.32,30.24,15,5,15,0.01
2014-1-1,61.6,60.5,58.7,61.6,59.4,55.5,100,96,84,30.29,30.07,16,5,16,0.44
2014-1-2,67.0,62.4,56.5,67.0,62.3,54.4,100,100,93,30.07,29.78,29,2,29,0.22